收藏本版 (3) |订阅

会员签到区 今日: 1 |主题: 673|排名: 2 

作者 回复/查看 最后发表
2018年8月14日签到记录贴  ...23456 tass20I5 2018-8-14 57107 xc10235689 2018-8-14 23:07
2018年8月13日签到记录贴  ...23456 aspjod 2018-8-13 5397 shbvan 2018-8-13 23:24
2018年8月12日签到记录贴  ...23456 lengfei520 2018-8-12 51110 zdw8730 2018-8-12 23:02
2018年8月11日签到记录贴  ...2345 qq1253276764 2018-8-11 4396 lengfei520 2018-8-11 23:46
2018年8月10日签到记录贴  ...234 qq1253276764 2018-8-10 34120 pop630621 2018-8-10 22:49
2018年8月9日签到记录贴  ...23456 wh9684321 2018-8-9 56132 ding1984 2018-8-9 23:02
2018年8月8日签到记录贴  ...2345 rb00000 2018-8-8 45116 yhr7313247 2018-8-8 23:58
2018年8月7日签到记录贴  ...23456 ldk520 2018-8-7 50153 dhrldx 2018-8-7 23:33
2018年8月6日签到记录贴  ...23456..7 zl592122 2018-8-6 61157 ldk520 2018-8-6 23:51
2018年8月5日签到记录贴  ...23456 zl1818 2018-8-5 54126 xj412710376 2018-8-5 23:20
2018年8月4日签到记录贴  ...23456..7 qaz5200 2018-8-4 62202 jibawang5 2018-8-4 23:59
2018年8月3日签到记录贴  ...23456..7 桂B88888 2018-8-3 62137 qaz5200 2018-8-3 23:56
2018年8月2日签到记录贴  ...23456 hendewo 2018-8-2 52147 ipo123 2018-8-2 23:49
2018年8月1日签到记录贴  ...23456..7 y869083353 2018-8-1 65171 mjy1234 2018-8-1 23:42
2018年7月31日签到记录贴  ...23456..7 hendewo 2018-7-31 64150 zm0603 2018-7-31 23:38
2018年7月30日签到记录贴  ...23456..8 hendewo 2018-7-30 70201 liang136030 2018-7-30 23:45
2018年7月29日签到记录贴  ...23456 976618yyy 2018-7-29 55145 ys1994513 2018-7-29 23:47
2018年7月28日签到记录贴  ...2345 qq1253276764 2018-7-28 47123 aa666999 2018-7-28 23:52
2018年7月27日签到记录贴  ...2345 xj412710376 2018-7-27 40110 w250723076 2018-7-27 23:29
2018年7月26日签到记录贴  ...23456 pp1974525 2018-7-26 55154 xj412710376 2018-7-26 23:02
下一页 »

快速发帖

还可输入 80 个字符
您需要登录后才可以发帖 登录 | 立即注册

本版积分规则

Archiver|518白菜论坛手机版|小黑屋|518白菜论坛  

GMT+8, 2019-1-24 04:00 , Processed in 0.134112 second(s), 16 queries .

Powered by Discuz! X3.2

© 2001-2017 Comsenz Inc. Template By 【未来科技】【 www.wekei.cn 】

返回顶部 返回版块